Decoded Metar for KDVL (DEVILS LAKE in ND, USA) (IATA:DVL) | Meteo·Mobile Aviation Weather
aviador You're here:

KDVL Decoded Metar

DEVILS LAKE in ND, USA
Report Time2018-09-20 08:56:00
UTC Time2018-09-20 09:33:52
Flight Rules vfr VFR
Wind060° at 06 kt
W.Decomp.*RWY 03: 5.5 kt HW 2.3 kt RCW
RWY 13: 1.3 kt HW 5.8 kt LCW
W.Rank060° ranks 33
Current wind is below 060° avg. (8.3)
Visibility9999 m
Phenomena:N/A
Clouds:Few 080 Hf
Expected CloudBase > 1,200 ft AGL from Temp-Dew spread
CeilingNone
Temp05°C (ISA -7)
Dew Point02°C (81% RH)
AAT1.2°C
QNH1020 hPa
Density Alt459 ft
Elevation1,453 ft
Report Wrong Elevation
Raw Report
KDVL 200856Z AUTO 06006KT 10SM FEW080 05/02 A3013 RMK AO2 SLP225
T00500017 58006=

Extra information for KDVL:More info

Metar Taf Metar & Taf Last 4 Metars F.Rules Stats Wind Profile Meteogram Temp Stats Airport Information Weather charts Add Link Nearby VenuesMetar ALERT Operation Metar Decoded Social comments

AIRNAV info for KDVL